sensor_id;sensor_type;location;lat;lon;timestamp;temperature;humidity
16384;DHT22;8301;51.440;6.610;2024-03-08T00:01:39;3.50;95.90
16384;DHT22;8301;51.440;6.610;2024-03-08T00:04:07;3.40;99.90
16384;DHT22;8301;51.440;6.610;2024-03-08T00:06:34;3.30;99.90
16384;DHT22;8301;51.440;6.610;2024-03-08T00:09:02;3.30;99.90
16384;DHT22;8301;51.440;6.610;2024-03-08T00:11:29;3.20;99.90
16384;DHT22;8301;51.440;6.610;2024-03-08T00:13:57;3.10;99.90
16384;DHT22;8301;51.440;6.610;2024-03-08T00:16:25;3.10;99.90
16384;DHT22;8301;51.440;6.610;2024-03-08T00:18:52;3.10;99.90
16384;DHT22;8301;51.440;6.610;2024-03-08T00:21:21;3.10;92.90
16384;DHT22;8301;51.440;6.610;2024-03-08T00:23:49;3.00;75.40
16384;DHT22;8301;51.440;6.610;2024-03-08T00:26:17;2.90;59.00
16384;DHT22;8301;51.440;6.610;2024-03-08T00:28:44;2.80;99.90
16384;DHT22;8301;51.440;6.610;2024-03-08T00:31:12;2.80;99.90
16384;DHT22;8301;51.440;6.610;2024-03-08T00:33:43;2.70;99.90
16384;DHT22;8301;51.440;6.610;2024-03-08T00:36:11;2.60;99.90
16384;DHT22;8301;51.440;6.610;2024-03-08T00:38:41;2.60;99.90
16384;DHT22;8301;51.440;6.610;2024-03-08T00:41:09;2.50;99.90
16384;DHT22;8301;51.440;6.610;2024-03-08T00:43:36;2.40;99.90
16384;DHT22;8301;51.440;6.610;2024-03-08T00:46:04;2.30;99.90
16384;DHT22;8301;51.440;6.610;2024-03-08T00:48:32;2.30;99.90
16384;DHT22;8301;51.440;6.610;2024-03-08T00:50:59;2.30;99.90
16384;DHT22;8301;51.440;6.610;2024-03-08T00:53:29;2.30;99.90
16384;DHT22;8301;51.440;6.610;2024-03-08T00:55:57;2.10;99.90
16384;DHT22;8301;51.440;6.610;2024-03-08T00:58:24;2.10;1.00
16384;DHT22;8301;51.440;6.610;2024-03-08T01:00:52;2.10;1.00
16384;DHT22;8301;51.440;6.610;2024-03-08T01:03:19;2.10;99.90
16384;DHT22;8301;51.440;6.610;2024-03-08T01:05:46;2.10;1.00
16384;DHT22;8301;51.440;6.610;2024-03-08T01:08:14;2.00;99.90
16384;DHT22;8301;51.440;6.610;2024-03-08T01:10:41;2.00;1.00
16384;DHT22;8301;51.440;6.610;2024-03-08T01:13:09;2.00;1.00
16384;DHT22;8301;51.440;6.610;2024-03-08T01:15:37;2.00;1.00
16384;DHT22;8301;51.440;6.610;2024-03-08T01:18:07;2.10;1.00
16384;DHT22;8301;51.440;6.610;2024-03-08T01:27:58;2.10;99.90
16384;DHT22;8301;51.440;6.610;2024-03-08T01:30:25;2.10;99.90
16384;DHT22;8301;51.440;6.610;2024-03-08T01:32:53;2.10;1.00
16384;DHT22;8301;51.440;6.610;2024-03-08T01:35:22;2.10;1.00
16384;DHT22;8301;51.440;6.610;2024-03-08T06:58:39;2.10;1.00
16384;DHT22;8301;51.440;6.610;2024-03-08T07:01:06;2.50;99.90
16384;DHT22;8301;51.440;6.610;2024-03-08T07:03:35;2.50;34.70
16384;DHT22;8301;51.440;6.610;2024-03-08T07:06:04;2.70;6.60
16384;DHT22;8301;51.440;6.610;2024-03-08T07:08:33;2.80;1.00
16384;DHT22;8301;51.440;6.610;2024-03-08T07:11:01;2.70;1.00
16384;DHT22;8301;51.440;6.610;2024-03-08T07:13:30;2.60;1.00
16384;DHT22;8301;51.440;6.610;2024-03-08T07:15:58;2.60;1.00
16384;DHT22;8301;51.440;6.610;2024-03-08T07:18:27;2.70;1.00
16384;DHT22;8301;51.440;6.610;2024-03-08T07:20:57;2.60;1.00
16384;DHT22;8301;51.440;6.610;2024-03-08T07:23:24;2.70;1.00
16384;DHT22;8301;51.440;6.610;2024-03-08T07:25:53;2.80;1.00
16384;DHT22;8301;51.440;6.610;2024-03-08T07:28:21;2.90;1.00
16384;DHT22;8301;51.440;6.610;2024-03-08T07:30:49;3.10;1.00
16384;DHT22;8301;51.440;6.610;2024-03-08T07:33:18;3.20;1.00
16384;DHT22;8301;51.440;6.610;2024-03-08T07:35:45;3.50;1.00
16384;DHT22;8301;51.440;6.610;2024-03-08T07:38:13;3.60;1.00
16384;DHT22;8301;51.440;6.610;2024-03-08T07:40:41;4.10;1.00
16384;DHT22;8301;51.440;6.610;2024-03-08T07:43:12;4.20;1.00
16384;DHT22;8301;51.440;6.610;2024-03-08T07:45:40;4.60;1.00
16384;DHT22;8301;51.440;6.610;2024-03-08T07:48:08;4.50;1.00
16384;DHT22;8301;51.440;6.610;2024-03-08T07:50:38;4.50;1.00
16384;DHT22;8301;51.440;6.610;2024-03-08T07:53:10;4.50;1.00
16384;DHT22;8301;51.440;6.610;2024-03-08T07:55:38;4.40;1.00
16384;DHT22;8301;51.440;6.610;2024-03-08T07:58:07;4.40;1.00
16384;DHT22;8301;51.440;6.610;2024-03-08T08:00:37;4.30;1.00
16384;DHT22;8301;51.440;6.610;2024-03-08T08:03:05;4.40;1.00
16384;DHT22;8301;51.440;6.610;2024-03-08T08:05:34;4.30;1.00
16384;DHT22;8301;51.440;6.610;2024-03-08T08:08:03;4.40;1.00
16384;DHT22;8301;51.440;6.610;2024-03-08T08:10:33;4.60;1.00
16384;DHT22;8301;51.440;6.610;2024-03-08T08:13:01;4.90;1.00
16384;DHT22;8301;51.440;6.610;2024-03-08T08:15:31;4.70;1.00
16384;DHT22;8301;51.440;6.610;2024-03-08T08:18:00;4.70;1.00
16384;DHT22;8301;51.440;6.610;2024-03-08T08:20:29;4.70;1.00
16384;DHT22;8301;51.440;6.610;2024-03-08T08:22:56;5.00;1.00
16384;DHT22;8301;51.440;6.610;2024-03-08T08:25:26;5.10;1.00
16384;DHT22;8301;51.440;6.610;2024-03-08T08:27:53;5.20;1.00
16384;DHT22;8301;51.440;6.610;2024-03-08T08:30:22;5.20;1.00
16384;DHT22;8301;51.440;6.610;2024-03-08T08:32:54;5.30;1.00
16384;DHT22;8301;51.440;6.610;2024-03-08T08:35:23;5.40;1.00
16384;DHT22;8301;51.440;6.610;2024-03-08T08:37:51;5.50;1.00
16384;DHT22;8301;51.440;6.610;2024-03-08T08:40:18;5.80;1.00
16384;DHT22;8301;51.440;6.610;2024-03-08T08:42:47;5.80;1.00
16384;DHT22;8301;51.440;6.610;2024-03-08T08:45:14;6.10;1.00
16384;DHT22;8301;51.440;6.610;2024-03-08T08:47:46;6.20;1.00
16384;DHT22;8301;51.440;6.610;2024-03-08T08:50:16;6.40;1.00
16384;DHT22;8301;51.440;6.610;2024-03-08T08:52:45;6.70;1.00
16384;DHT22;8301;51.440;6.610;2024-03-08T08:55:12;6.90;1.00
16384;DHT22;8301;51.440;6.610;2024-03-08T08:57:41;7.00;1.00
16384;DHT22;8301;51.440;6.610;2024-03-08T09:00:09;7.10;1.00
16384;DHT22;8301;51.440;6.610;2024-03-08T09:02:38;7.40;1.00
16384;DHT22;8301;51.440;6.610;2024-03-08T09:05:06;7.50;1.00
16384;DHT22;8301;51.440;6.610;2024-03-08T09:07:35;8.10;1.00
16384;DHT22;8301;51.440;6.610;2024-03-08T09:10:05;8.60;1.00
16384;DHT22;8301;51.440;6.610;2024-03-08T09:12:33;8.60;1.00
16384;DHT22;8301;51.440;6.610;2024-03-08T09:15:00;8.50;1.00
16384;DHT22;8301;51.440;6.610;2024-03-08T09:17:27;8.90;1.00
16384;DHT22;8301;51.440;6.610;2024-03-08T09:19:56;9.30;1.00
16384;DHT22;8301;51.440;6.610;2024-03-08T09:22:24;9.30;1.00
16384;DHT22;8301;51.440;6.610;2024-03-08T09:24:52;9.30;1.00
16384;DHT22;8301;51.440;6.610;2024-03-08T09:27:19;8.80;1.00
16384;DHT22;8301;51.440;6.610;2024-03-08T09:29:47;9.20;1.00
16384;DHT22;8301;51.440;6.610;2024-03-08T09:32:15;9.10;1.00
16384;DHT22;8301;51.440;6.610;2024-03-08T09:34:43;9.00;1.00
16384;DHT22;8301;51.440;6.610;2024-03-08T09:37:10;8.90;1.00
16384;DHT22;8301;51.440;6.610;2024-03-08T09:39:39;8.80;1.00
16384;DHT22;8301;51.440;6.610;2024-03-08T09:42:06;8.70;1.00
16384;DHT22;8301;51.440;6.610;2024-03-08T09:44:34;8.50;1.00
16384;DHT22;8301;51.440;6.610;2024-03-08T09:47:03;8.50;1.00
16384;DHT22;8301;51.440;6.610;2024-03-08T09:49:33;8.30;1.00
16384;DHT22;8301;51.440;6.610;2024-03-08T09:52:01;8.60;1.00
16384;DHT22;8301;51.440;6.610;2024-03-08T09:54:34;8.40;1.00
16384;DHT22;8301;51.440;6.610;2024-03-08T09:57:04;8.30;1.00
16384;DHT22;8301;51.440;6.610;2024-03-08T09:59:35;8.20;1.00
16384;DHT22;8301;51.440;6.610;2024-03-08T10:02:04;8.40;1.00
16384;DHT22;8301;51.440;6.610;2024-03-08T10:04:32;8.50;1.00
16384;DHT22;8301;51.440;6.610;2024-03-08T10:07:01;8.60;1.00
16384;DHT22;8301;51.440;6.610;2024-03-08T10:09:29;8.90;1.00
16384;DHT22;8301;51.440;6.610;2024-03-08T10:11:57;8.70;1.00
16384;DHT22;8301;51.440;6.610;2024-03-08T10:14:26;8.70;1.00
16384;DHT22;8301;51.440;6.610;2024-03-08T10:16:54;8.60;1.00
16384;DHT22;8301;51.440;6.610;2024-03-08T10:19:24;8.50;1.00
16384;DHT22;8301;51.440;6.610;2024-03-08T10:21:52;8.60;1.00
16384;DHT22;8301;51.440;6.610;2024-03-08T10:24:23;8.70;1.00
16384;DHT22;8301;51.440;6.610;2024-03-08T10:27:03;8.60;1.00
16384;DHT22;8301;51.440;6.610;2024-03-08T10:29:31;8.90;1.00
16384;DHT22;8301;51.440;6.610;2024-03-08T10:32:00;9.00;1.00
16384;DHT22;8301;51.440;6.610;2024-03-08T10:34:28;9.30;1.00
16384;DHT22;8301;51.440;6.610;2024-03-08T10:36:59;9.20;1.00
16384;DHT22;8301;51.440;6.610;2024-03-08T10:39:28;9.30;1.00
16384;DHT22;8301;51.440;6.610;2024-03-08T10:41:58;9.20;1.00
16384;DHT22;8301;51.440;6.610;2024-03-08T10:44:40;9.50;1.00
16384;DHT22;8301;51.440;6.610;2024-03-08T10:47:16;9.30;1.00
16384;DHT22;8301;51.440;6.610;2024-03-08T10:52:30;9.30;1.00
16384;DHT22;8301;51.440;6.610;2024-03-08T10:54:58;9.40;1.00
16384;DHT22;8301;51.440;6.610;2024-03-08T10:57:27;9.50;1.00
16384;DHT22;8301;51.440;6.610;2024-03-08T10:59:55;9.60;1.00
16384;DHT22;8301;51.440;6.610;2024-03-08T11:02:26;9.80;1.00
16384;DHT22;8301;51.440;6.610;2024-03-08T11:04:53;9.90;1.00
16384;DHT22;8301;51.440;6.610;2024-03-08T11:07:23;9.90;1.00
16384;DHT22;8301;51.440;6.610;2024-03-08T11:09:53;9.90;1.00
16384;DHT22;8301;51.440;6.610;2024-03-08T11:12:26;10.00;1.00
16384;DHT22;8301;51.440;6.610;2024-03-08T11:15:01;10.10;1.00
16384;DHT22;8301;51.440;6.610;2024-03-08T11:20:10;10.70;1.00
16384;DHT22;8301;51.440;6.610;2024-03-08T11:22:39;10.40;1.00
16384;DHT22;8301;51.440;6.610;2024-03-08T11:25:09;10.50;1.00
16384;DHT22;8301;51.440;6.610;2024-03-08T11:27:37;10.50;1.00
16384;DHT22;8301;51.440;6.610;2024-03-08T11:30:07;10.40;1.00
16384;DHT22;8301;51.440;6.610;2024-03-08T11:32:48;10.60;1.00
16384;DHT22;8301;51.440;6.610;2024-03-08T11:35:20;10.70;1.00
16384;DHT22;8301;51.440;6.610;2024-03-08T11:37:50;10.60;1.00
16384;DHT22;8301;51.440;6.610;2024-03-08T11:40:18;10.50;1.00
16384;DHT22;8301;51.440;6.610;2024-03-08T11:42:49;10.50;1.00
16384;DHT22;8301;51.440;6.610;2024-03-08T11:45:18;10.60;1.00
16384;DHT22;8301;51.440;6.610;2024-03-08T11:47:48;10.80;1.00
16384;DHT22;8301;51.440;6.610;2024-03-08T11:50:16;10.90;1.00
16384;DHT22;8301;51.440;6.610;2024-03-08T11:52:45;10.90;1.00
16384;DHT22;8301;51.440;6.610;2024-03-08T11:55:12;10.80;1.00
16384;DHT22;8301;51.440;6.610;2024-03-08T11:57:40;10.90;1.00
16384;DHT22;8301;51.440;6.610;2024-03-08T12:00:18;11.10;1.00
16384;DHT22;8301;51.440;6.610;2024-03-08T12:03:05;10.90;1.00
16384;DHT22;8301;51.440;6.610;2024-03-08T12:05:34;10.80;1.00
16384;DHT22;8301;51.440;6.610;2024-03-08T12:08:03;10.90;1.00
16384;DHT22;8301;51.440;6.610;2024-03-08T12:10:31;10.60;1.00
16384;DHT22;8301;51.440;6.610;2024-03-08T12:12:59;10.80;1.00
16384;DHT22;8301;51.440;6.610;2024-03-08T12:15:28;10.70;1.00
16384;DHT22;8301;51.440;6.610;2024-03-08T12:17:59;10.90;1.00
16384;DHT22;8301;51.440;6.610;2024-03-08T12:20:28;10.70;1.00
16384;DHT22;8301;51.440;6.610;2024-03-08T12:22:58;10.90;1.00
16384;DHT22;8301;51.440;6.610;2024-03-08T12:25:30;10.50;1.00
16384;DHT22;8301;51.440;6.610;2024-03-08T12:28:06;10.50;1.00
16384;DHT22;8301;51.440;6.610;2024-03-08T12:30:27;10.90;1.00
16384;DHT22;8301;51.440;6.610;2024-03-08T12:32:57;11.00;1.00
16384;DHT22;8301;51.440;6.610;2024-03-08T12:35:28;10.70;1.00
16384;DHT22;8301;51.440;6.610;2024-03-08T12:37:57;10.70;1.00
16384;DHT22;8301;51.440;6.610;2024-03-08T12:40:29;10.80;1.00
16384;DHT22;8301;51.440;6.610;2024-03-08T12:42:57;10.90;1.00
16384;DHT22;8301;51.440;6.610;2024-03-08T12:45:25;10.80;1.00
16384;DHT22;8301;51.440;6.610;2024-03-08T12:47:54;10.80;1.00
16384;DHT22;8301;51.440;6.610;2024-03-08T12:50:25;10.70;1.00
16384;DHT22;8301;51.440;6.610;2024-03-08T12:52:53;10.70;1.00
16384;DHT22;8301;51.440;6.610;2024-03-08T12:55:20;10.80;1.00
16384;DHT22;8301;51.440;6.610;2024-03-08T12:57:48;11.00;1.00
16384;DHT22;8301;51.440;6.610;2024-03-08T13:00:16;11.00;1.00
16384;DHT22;8301;51.440;6.610;2024-03-08T13:02:46;11.00;1.00
16384;DHT22;8301;51.440;6.610;2024-03-08T13:05:14;11.00;1.00
16384;DHT22;8301;51.440;6.610;2024-03-08T13:07:42;11.10;1.00
16384;DHT22;8301;51.440;6.610;2024-03-08T13:10:16;10.80;1.00
16384;DHT22;8301;51.440;6.610;2024-03-08T13:12:43;10.90;1.00
16384;DHT22;8301;51.440;6.610;2024-03-08T13:15:11;11.10;1.00
16384;DHT22;8301;51.440;6.610;2024-03-08T13:17:40;11.10;1.00
16384;DHT22;8301;51.440;6.610;2024-03-08T13:20:09;11.40;1.00
16384;DHT22;8301;51.440;6.610;2024-03-08T13:22:40;11.50;1.00
16384;DHT22;8301;51.440;6.610;2024-03-08T13:25:08;11.50;1.00
16384;DHT22;8301;51.440;6.610;2024-03-08T13:27:37;11.70;1.00
16384;DHT22;8301;51.440;6.610;2024-03-08T13:30:06;11.80;1.00
16384;DHT22;8301;51.440;6.610;2024-03-08T13:32:34;11.70;1.00
16384;DHT22;8301;51.440;6.610;2024-03-08T13:35:01;11.90;1.00
16384;DHT22;8301;51.440;6.610;2024-03-08T13:37:30;11.90;1.00
16384;DHT22;8301;51.440;6.610;2024-03-08T13:39:59;12.10;1.00
16384;DHT22;8301;51.440;6.610;2024-03-08T13:42:27;12.10;1.00
16384;DHT22;8301;51.440;6.610;2024-03-08T13:44:55;12.20;1.00
16384;DHT22;8301;51.440;6.610;2024-03-08T13:47:22;12.20;1.00
16384;DHT22;8301;51.440;6.610;2024-03-08T13:49:51;12.20;1.00
16384;DHT22;8301;51.440;6.610;2024-03-08T13:52:19;12.10;1.00
16384;DHT22;8301;51.440;6.610;2024-03-08T13:54:47;12.10;1.00
16384;DHT22;8301;51.440;6.610;2024-03-08T13:57:16;12.10;1.00
16384;DHT22;8301;51.440;6.610;2024-03-08T13:59:45;12.10;1.00
16384;DHT22;8301;51.440;6.610;2024-03-08T14:02:12;11.90;1.00
16384;DHT22;8301;51.440;6.610;2024-03-08T14:04:40;12.00;1.00
16384;DHT22;8301;51.440;6.610;2024-03-08T14:07:08;12.10;1.00
16384;DHT22;8301;51.440;6.610;2024-03-08T14:09:37;12.10;1.00
16384;DHT22;8301;51.440;6.610;2024-03-08T14:12:07;12.10;1.00
16384;DHT22;8301;51.440;6.610;2024-03-08T14:14:34;12.10;1.00
16384;DHT22;8301;51.440;6.610;2024-03-08T14:17:02;12.00;1.00
16384;DHT22;8301;51.440;6.610;2024-03-08T14:19:30;12.10;1.00
16384;DHT22;8301;51.440;6.610;2024-03-08T14:21:59;12.10;1.00
16384;DHT22;8301;51.440;6.610;2024-03-08T14:24:26;12.10;1.00
16384;DHT22;8301;51.440;6.610;2024-03-08T14:26:54;12.10;1.00
16384;DHT22;8301;51.440;6.610;2024-03-08T14:29:21;12.10;1.00
16384;DHT22;8301;51.440;6.610;2024-03-08T14:31:50;12.10;1.00
16384;DHT22;8301;51.440;6.610;2024-03-08T14:34:17;12.00;1.00
16384;DHT22;8301;51.440;6.610;2024-03-08T14:36:46;12.10;1.00
16384;DHT22;8301;51.440;6.610;2024-03-08T14:39:14;12.00;1.00
16384;DHT22;8301;51.440;6.610;2024-03-08T14:41:45;12.10;1.00
16384;DHT22;8301;51.440;6.610;2024-03-08T14:44:13;11.90;1.00
16384;DHT22;8301;51.440;6.610;2024-03-08T14:46:42;12.10;1.00
16384;DHT22;8301;51.440;6.610;2024-03-08T14:49:09;12.00;1.00
16384;DHT22;8301;51.440;6.610;2024-03-08T14:51:36;12.00;1.00
16384;DHT22;8301;51.440;6.610;2024-03-08T14:54:03;11.90;1.00
16384;DHT22;8301;51.440;6.610;2024-03-08T14:56:32;11.90;1.00
16384;DHT22;8301;51.440;6.610;2024-03-08T14:59:00;11.90;1.00
16384;DHT22;8301;51.440;6.610;2024-03-08T15:01:27;11.90;1.00
16384;DHT22;8301;51.440;6.610;2024-03-08T15:03:58;11.90;1.00
16384;DHT22;8301;51.440;6.610;2024-03-08T15:06:29;11.80;1.00
16384;DHT22;8301;51.440;6.610;2024-03-08T15:08:57;11.70;1.00
16384;DHT22;8301;51.440;6.610;2024-03-08T15:11:24;11.70;1.00
16384;DHT22;8301;51.440;6.610;2024-03-08T15:13:51;11.80;1.00
16384;DHT22;8301;51.440;6.610;2024-03-08T15:16:19;11.80;1.00
16384;DHT22;8301;51.440;6.610;2024-03-08T15:18:47;11.70;1.00
16384;DHT22;8301;51.440;6.610;2024-03-08T15:21:16;11.70;1.00
16384;DHT22;8301;51.440;6.610;2024-03-08T15:23:45;11.80;1.00
16384;DHT22;8301;51.440;6.610;2024-03-08T15:26:15;11.60;1.00
16384;DHT22;8301;51.440;6.610;2024-03-08T15:28:44;11.60;1.00
16384;DHT22;8301;51.440;6.610;2024-03-08T15:31:13;11.60;1.00
16384;DHT22;8301;51.440;6.610;2024-03-08T15:33:41;11.60;1.00
16384;DHT22;8301;51.440;6.610;2024-03-08T15:36:13;11.60;1.00
16384;DHT22;8301;51.440;6.610;2024-03-08T15:38:43;11.60;1.00
16384;DHT22;8301;51.440;6.610;2024-03-08T15:41:12;11.60;1.00
16384;DHT22;8301;51.440;6.610;2024-03-08T15:43:40;11.60;1.00
16384;DHT22;8301;51.440;6.610;2024-03-08T15:46:09;11.60;1.00
16384;DHT22;8301;51.440;6.610;2024-03-08T15:48:38;11.60;1.00
16384;DHT22;8301;51.440;6.610;2024-03-08T15:51:07;11.50;1.00
16384;DHT22;8301;51.440;6.610;2024-03-08T15:53:37;11.50;1.00
16384;DHT22;8301;51.440;6.610;2024-03-08T15:56:05;11.30;1.00
16384;DHT22;8301;51.440;6.610;2024-03-08T15:58:34;11.20;1.00
16384;DHT22;8301;51.440;6.610;2024-03-08T16:01:02;11.20;1.00
16384;DHT22;8301;51.440;6.610;2024-03-08T16:03:32;11.10;1.00
16384;DHT22;8301;51.440;6.610;2024-03-08T16:06:00;11.10;1.00
16384;DHT22;8301;51.440;6.610;2024-03-08T16:08:28;11.10;1.00
16384;DHT22;8301;51.440;6.610;2024-03-08T16:10:55;11.00;1.00
16384;DHT22;8301;51.440;6.610;2024-03-08T16:13:24;11.00;1.00
16384;DHT22;8301;51.440;6.610;2024-03-08T16:15:53;11.00;1.00
16384;DHT22;8301;51.440;6.610;2024-03-08T16:18:25;10.90;1.00
16384;DHT22;8301;51.440;6.610;2024-03-08T16:20:54;10.90;1.00
16384;DHT22;8301;51.440;6.610;2024-03-08T16:23:23;10.90;1.00
16384;DHT22;8301;51.440;6.610;2024-03-08T16:25:51;10.80;1.00
16384;DHT22;8301;51.440;6.610;2024-03-08T16:28:20;10.70;1.00
16384;DHT22;8301;51.440;6.610;2024-03-08T16:30:52;10.70;1.00
16384;DHT22;8301;51.440;6.610;2024-03-08T16:33:23;10.70;1.00
16384;DHT22;8301;51.440;6.610;2024-03-08T16:35:51;10.70;1.00
16384;DHT22;8301;51.440;6.610;2024-03-08T16:38:20;10.60;1.00
16384;DHT22;8301;51.440;6.610;2024-03-08T16:40:49;10.50;1.00
16384;DHT22;8301;51.440;6.610;2024-03-08T16:43:19;10.50;1.00
16384;DHT22;8301;51.440;6.610;2024-03-08T16:45:49;10.50;1.00
16384;DHT22;8301;51.440;6.610;2024-03-08T16:48:17;10.40;1.00
16384;DHT22;8301;51.440;6.610;2024-03-08T16:50:45;10.30;1.00
16384;DHT22;8301;51.440;6.610;2024-03-08T16:53:13;10.30;1.00
16384;DHT22;8301;51.440;6.610;2024-03-08T16:55:41;10.30;1.00
16384;DHT22;8301;51.440;6.610;2024-03-08T16:58:10;10.30;1.00
16384;DHT22;8301;51.440;6.610;2024-03-08T17:00:39;10.20;1.00
16384;DHT22;8301;51.440;6.610;2024-03-08T17:03:08;10.20;1.00
16384;DHT22;8301;51.440;6.610;2024-03-08T17:05:37;10.10;1.00
16384;DHT22;8301;51.440;6.610;2024-03-08T17:08:06;10.00;1.00
16384;DHT22;8301;51.440;6.610;2024-03-08T17:10:35;9.90;1.00
16384;DHT22;8301;51.440;6.610;2024-03-08T17:13:03;9.90;1.00
16384;DHT22;8301;51.440;6.610;2024-03-08T17:15:32;9.90;1.00
16384;DHT22;8301;51.440;6.610;2024-03-08T17:18:02;9.80;1.00
16384;DHT22;8301;51.440;6.610;2024-03-08T17:20:33;9.70;1.00
16384;DHT22;8301;51.440;6.610;2024-03-08T17:23:04;9.60;1.00
16384;DHT22;8301;51.440;6.610;2024-03-08T17:25:35;9.50;1.00
16384;DHT22;8301;51.440;6.610;2024-03-08T17:28:04;9.50;1.00
16384;DHT22;8301;51.440;6.610;2024-03-08T17:30:33;9.50;1.00
16384;DHT22;8301;51.440;6.610;2024-03-08T17:33:03;9.50;1.00
16384;DHT22;8301;51.440;6.610;2024-03-08T17:35:33;9.50;1.00
16384;DHT22;8301;51.440;6.610;2024-03-08T17:38:01;9.40;1.00
16384;DHT22;8301;51.440;6.610;2024-03-08T17:40:39;9.40;1.00
16384;DHT22;8301;51.440;6.610;2024-03-08T17:43:08;9.40;1.00
16384;DHT22;8301;51.440;6.610;2024-03-08T17:45:40;9.30;1.00
16384;DHT22;8301;51.440;6.610;2024-03-08T17:48:10;9.30;1.00
16384;DHT22;8301;51.440;6.610;2024-03-08T17:50:39;9.20;1.00
16384;DHT22;8301;51.440;6.610;2024-03-08T17:53:08;9.00;1.00
16384;DHT22;8301;51.440;6.610;2024-03-08T17:55:37;9.00;1.00
16384;DHT22;8301;51.440;6.610;2024-03-08T17:58:06;8.90;1.00
16384;DHT22;8301;51.440;6.610;2024-03-08T18:00:34;8.80;1.00
16384;DHT22;8301;51.440;6.610;2024-03-08T18:03:09;8.80;1.00
16384;DHT22;8301;51.440;6.610;2024-03-08T18:05:38;8.70;1.00
16384;DHT22;8301;51.440;6.610;2024-03-08T18:08:07;8.60;1.00
16384;DHT22;8301;51.440;6.610;2024-03-08T18:10:35;8.60;1.00
16384;DHT22;8301;51.440;6.610;2024-03-08T18:13:05;8.60;1.00
16384;DHT22;8301;51.440;6.610;2024-03-08T18:15:45;8.60;1.00
16384;DHT22;8301;51.440;6.610;2024-03-08T18:18:13;8.50;1.00
16384;DHT22;8301;51.440;6.610;2024-03-08T18:20:41;8.50;1.00
16384;DHT22;8301;51.440;6.610;2024-03-08T18:23:13;8.40;1.00
16384;DHT22;8301;51.440;6.610;2024-03-08T18:25:42;8.30;1.00
16384;DHT22;8301;51.440;6.610;2024-03-08T18:28:10;8.30;1.00
16384;DHT22;8301;51.440;6.610;2024-03-08T18:30:40;8.30;1.00
16384;DHT22;8301;51.440;6.610;2024-03-08T18:33:08;8.30;1.00
16384;DHT22;8301;51.440;6.610;2024-03-08T18:35:38;8.30;1.00
16384;DHT22;8301;51.440;6.610;2024-03-08T18:38:05;8.40;1.00
16384;DHT22;8301;51.440;6.610;2024-03-08T18:40:33;8.30;1.00
16384;DHT22;8301;51.440;6.610;2024-03-08T18:43:01;8.30;1.00
16384;DHT22;8301;51.440;6.610;2024-03-08T18:45:28;8.30;1.00
16384;DHT22;8301;51.440;6.610;2024-03-08T18:47:58;8.20;1.00
16384;DHT22;8301;51.440;6.610;2024-03-08T18:50:26;8.20;1.00
16384;DHT22;8301;51.440;6.610;2024-03-08T18:52:56;8.10;1.00
16384;DHT22;8301;51.440;6.610;2024-03-08T18:55:25;8.00;1.00
16384;DHT22;8301;51.440;6.610;2024-03-08T18:57:55;8.00;1.00
16384;DHT22;8301;51.440;6.610;2024-03-08T19:00:27;8.10;1.00
16384;DHT22;8301;51.440;6.610;2024-03-08T19:03:06;8.00;1.00
16384;DHT22;8301;51.440;6.610;2024-03-08T19:05:36;7.90;1.00
16384;DHT22;8301;51.440;6.610;2024-03-08T19:08:06;7.90;1.00
16384;DHT22;8301;51.440;6.610;2024-03-08T19:10:37;7.90;1.00
16384;DHT22;8301;51.440;6.610;2024-03-08T19:13:05;7.90;1.00
16384;DHT22;8301;51.440;6.610;2024-03-08T19:15:34;7.90;1.00
16384;DHT22;8301;51.440;6.610;2024-03-08T19:18:02;8.00;1.00
16384;DHT22;8301;51.440;6.610;2024-03-08T19:20:34;7.90;1.00
16384;DHT22;8301;51.440;6.610;2024-03-08T19:23:02;7.90;1.00
16384;DHT22;8301;51.440;6.610;2024-03-08T19:25:33;7.80;1.00
16384;DHT22;8301;51.440;6.610;2024-03-08T19:28:06;7.70;1.00
16384;DHT22;8301;51.440;6.610;2024-03-08T19:30:36;7.70;1.00
16384;DHT22;8301;51.440;6.610;2024-03-08T19:33:06;7.70;1.00
16384;DHT22;8301;51.440;6.610;2024-03-08T19:35:35;7.70;1.00
16384;DHT22;8301;51.440;6.610;2024-03-08T19:38:03;7.70;1.00
16384;DHT22;8301;51.440;6.610;2024-03-08T19:40:32;7.60;1.00
16384;DHT22;8301;51.440;6.610;2024-03-08T19:43:03;7.50;1.00
16384;DHT22;8301;51.440;6.610;2024-03-08T19:45:35;7.60;1.00
16384;DHT22;8301;51.440;6.610;2024-03-08T19:48:03;7.60;1.00
16384;DHT22;8301;51.440;6.610;2024-03-08T19:50:33;7.70;1.00
16384;DHT22;8301;51.440;6.610;2024-03-08T19:53:02;7.50;1.00
16384;DHT22;8301;51.440;6.610;2024-03-08T19:55:37;7.60;1.00
16384;DHT22;8301;51.440;6.610;2024-03-08T19:58:06;7.50;1.00
16384;DHT22;8301;51.440;6.610;2024-03-08T20:00:36;7.50;1.00
16384;DHT22;8301;51.440;6.610;2024-03-08T20:03:05;7.40;1.00
16384;DHT22;8301;51.440;6.610;2024-03-08T20:05:34;7.40;1.00
16384;DHT22;8301;51.440;6.610;2024-03-08T20:08:02;7.40;1.00
16384;DHT22;8301;51.440;6.610;2024-03-08T20:10:37;7.40;1.00
16384;DHT22;8301;51.440;6.610;2024-03-08T20:13:05;7.30;1.00
16384;DHT22;8301;51.440;6.610;2024-03-08T20:15:34;7.30;1.00
16384;DHT22;8301;51.440;6.610;2024-03-08T20:18:04;7.30;1.00
16384;DHT22;8301;51.440;6.610;2024-03-08T20:20:32;7.30;1.00
16384;DHT22;8301;51.440;6.610;2024-03-08T20:23:01;7.30;1.00
16384;DHT22;8301;51.440;6.610;2024-03-08T20:25:30;7.20;1.00
16384;DHT22;8301;51.440;6.610;2024-03-08T20:27:58;7.10;1.00
16384;DHT22;8301;51.440;6.610;2024-03-08T20:30:28;7.10;1.00
16384;DHT22;8301;51.440;6.610;2024-03-08T20:32:57;7.00;1.00
16384;DHT22;8301;51.440;6.610;2024-03-08T20:35:27;7.10;1.00
16384;DHT22;8301;51.440;6.610;2024-03-08T20:37:56;7.00;1.00
16384;DHT22;8301;51.440;6.610;2024-03-08T20:40:26;7.00;1.00
16384;DHT22;8301;51.440;6.610;2024-03-08T20:42:56;7.00;1.00
16384;DHT22;8301;51.440;6.610;2024-03-08T20:45:23;6.90;1.00
16384;DHT22;8301;51.440;6.610;2024-03-08T20:47:52;6.90;1.00
16384;DHT22;8301;51.440;6.610;2024-03-08T20:50:20;6.90;1.00
16384;DHT22;8301;51.440;6.610;2024-03-08T20:52:50;6.90;1.00
16384;DHT22;8301;51.440;6.610;2024-03-08T20:55:19;6.90;1.00
16384;DHT22;8301;51.440;6.610;2024-03-08T20:57:51;6.80;1.00
16384;DHT22;8301;51.440;6.610;2024-03-08T21:00:21;6.80;1.00
16384;DHT22;8301;51.440;6.610;2024-03-08T21:03:14;6.80;1.00
16384;DHT22;8301;51.440;6.610;2024-03-08T21:05:43;6.70;1.00
16384;DHT22;8301;51.440;6.610;2024-03-08T21:08:12;6.70;1.00
16384;DHT22;8301;51.440;6.610;2024-03-08T21:10:41;6.70;1.00
16384;DHT22;8301;51.440;6.610;2024-03-08T21:13:10;6.70;1.00
16384;DHT22;8301;51.440;6.610;2024-03-08T21:15:38;6.60;1.00
16384;DHT22;8301;51.440;6.610;2024-03-08T21:18:06;6.60;1.00
16384;DHT22;8301;51.440;6.610;2024-03-08T21:20:38;6.60;1.00
16384;DHT22;8301;51.440;6.610;2024-03-08T21:23:07;6.60;1.00
16384;DHT22;8301;51.440;6.610;2024-03-08T21:25:37;6.60;1.00
16384;DHT22;8301;51.440;6.610;2024-03-08T21:28:06;6.50;1.00
16384;DHT22;8301;51.440;6.610;2024-03-08T21:30:34;6.40;1.00
16384;DHT22;8301;51.440;6.610;2024-03-08T21:33:01;6.50;1.00
16384;DHT22;8301;51.440;6.610;2024-03-08T21:35:31;6.50;1.00
16384;DHT22;8301;51.440;6.610;2024-03-08T21:38:00;6.40;1.00
16384;DHT22;8301;51.440;6.610;2024-03-08T21:40:28;6.30;1.00
16384;DHT22;8301;51.440;6.610;2024-03-08T21:43:00;6.30;1.00
16384;DHT22;8301;51.440;6.610;2024-03-08T21:45:29;6.30;1.00
16384;DHT22;8301;51.440;6.610;2024-03-08T21:47:57;6.30;1.00
16384;DHT22;8301;51.440;6.610;2024-03-08T21:50:28;6.30;1.00
16384;DHT22;8301;51.440;6.610;2024-03-08T21:53:02;6.20;1.00
16384;DHT22;8301;51.440;6.610;2024-03-08T21:55:31;6.20;1.00